Time;durP1;ratioP1;P1;durP2;ratioP2;P2;SDS_P1;SDS_P2;PMS_P1;PMS_P2;Temp;Humidity;BMP_temperature;BMP_pressure;BME280_temperature;BME280_humidity;BME280_pressure;Samples;Min_cycle;Max_cycle;Signal;HPM_P1;HPM_P2
2022/09/13 00:02:03;;;;;;;12.75;6.20;;;461.00;2380.80;;;;;;5073430;28;20021;-77
2022/09/13 00:04:28;;;;;;;8.55;5.47;;;460.90;2380.80;;;;;;5074969;28;20033;-77
2022/09/13 00:06:54;;;;;;;10.45;5.75;;;460.80;2380.80;;;;;;5073277;28;20017;-76
2022/09/13 00:09:20;;;;;;;8.18;5.13;;;460.80;2380.80;;;;;;5075782;28;20027;-76
2022/09/13 00:11:45;;;;;;;8.10;5.18;;;460.90;2380.80;;;;;;5073638;28;20021;-77
2022/09/13 00:14:11;;;;;;;18.55;6.30;;;460.90;2380.80;;;;;;5100114;28;20371;-77
2022/09/13 00:16:37;;;;;;;8.90;6.30;;;460.80;2380.80;;;;;;5071893;28;20024;-77
2022/09/13 00:19:03;;;;;;;11.50;5.47;;;460.90;2380.80;;;;;;5077782;28;20499;-77
2022/09/13 00:21:29;;;;;;;11.02;6.53;;;460.80;2380.80;;;;;;5073584;28;20025;-77
2022/09/13 00:23:55;;;;;;;9.05;5.78;;;436.10;2355.20;;;;;;5076042;28;20037;-76
2022/09/13 00:26:26;;;;;;;8.00;5.18;;;436.10;2355.20;;;;;;5075763;28;20069;-77
2022/09/13 00:28:54;;;;;;;8.45;5.38;;;460.80;2380.80;;;;;;5073424;28;20413;-75
2022/09/13 00:31:22;;;;;;;9.30;5.68;;;436.10;2355.20;;;;;;5072812;28;20024;-76
2022/09/13 00:33:48;;;;;;;10.50;5.93;;;436.10;2355.20;;;;;;5074847;28;20024;-77
2022/09/13 00:36:14;;;;;;;10.18;5.13;;;436.00;2355.20;;;;;;5074895;28;20488;-76
2022/09/13 00:38:41;;;;;;;7.97;5.18;;;436.00;2355.20;;;;;;5075847;28;20028;-76
2022/09/13 00:41:12;;;;;;;12.00;5.93;;;436.10;2355.20;;;;;;5072616;28;20024;-76
2022/09/13 00:43:44;;;;;;;8.05;5.30;;;436.10;2355.20;;;;;;5071498;28;20028;-77
2022/09/13 00:46:16;;;;;;;10.68;5.90;;;436.00;2355.20;;;;;;5076477;28;20024;-76
2022/09/13 00:48:44;;;;;;;11.65;5.38;;;436.00;2355.20;;;;;;5075306;28;20017;-76
2022/09/13 00:51:11;;;;;;;9.45;6.53;;;436.00;2355.20;;;;;;5075603;28;20021;-77
2022/09/13 00:53:42;;;;;;;8.57;5.65;;;436.00;2355.20;;;;;;5071220;28;20025;-77
2022/09/13 00:56:23;;;;;;;10.30;6.25;;;435.90;2355.20;;;;;;5075362;28;20024;-76
2022/09/13 00:58:54;;;;;;;9.63;5.68;;;435.90;2355.20;;;;;;5078245;28;20032;-77
2022/09/13 01:01:25;;;;;;;10.15;6.32;;;435.90;2355.20;;;;;;5074418;28;20052;-77
2022/09/13 01:03:53;;;;;;;9.80;5.55;;;435.80;2355.20;;;;;;5077897;28;20021;-76
2022/09/13 01:06:28;;;;;;;8.65;5.30;;;435.80;2355.20;;;;;;5077905;28;20020;-77
2022/09/13 01:09:02;;;;;;;8.27;6.15;;;435.90;2355.20;;;;;;5075400;28;20108;-77
2022/09/13 01:11:41;;;;;;;10.50;5.82;;;435.90;2355.20;;;;;;5095997;28;20028;-76
2022/09/13 01:14:08;;;;;;;9.35;5.78;;;435.80;2355.20;;;;;;5074729;28;20108;-76
2022/09/13 01:16:34;;;;;;;8.25;5.75;;;435.90;2355.20;;;;;;5069336;28;20095;-76
2022/09/13 01:18:59;;;;;;;17.15;6.00;;;435.90;2355.20;;;;;;5079853;28;20115;-77
2022/09/13 01:21:49;;;;;;;8.57;6.45;;;435.90;2355.20;;;;;;5070674;28;20032;-77
2022/09/13 01:24:33;;;;;;;12.52;6.00;;;435.80;2355.20;;;;;;5072437;28;20044;-77
2022/09/13 01:27:11;;;;;;;9.23;5.88;;;435.80;2355.20;;;;;;5089355;28;20028;-76
2022/09/13 01:30:02;;;;;;;9.68;6.40;;;435.80;2355.20;;;;;;5082721;28;20541;-76
2022/09/13 01:33:00;;;;;;;11.18;6.15;;;435.80;2355.20;;;;;;5085858;28;20174;-76
2022/09/13 01:35:58;;;;;;;11.93;6.05;;;435.80;2355.20;;;;;;5071326;28;20021;-77
2022/09/13 01:38:51;;;;;;;7.85;5.57;;;435.90;2355.20;;;;;;5020048;28;20098;-76
2022/09/13 01:41:35;;;;;;;11.27;6.53;;;435.80;2355.20;;;;;;5021874;28;20397;-77
2022/09/13 01:44:02;;;;;;;9.23;5.97;;;435.80;2355.20;;;;;;5019442;28;20026;-77
2022/09/13 01:46:40;;;;;;;10.57;5.88;;;435.80;2355.20;;;;;;5018846;28;20630;-76
2022/09/13 01:49:09;;;;;;;11.77;6.10;;;435.80;2355.20;;;;;;5009675;28;20105;-77
2022/09/13 01:51:48;;;;;;;16.23;6.93;;;435.60;2355.20;;;;;;5021181;28;20112;-77
2022/09/13 01:54:27;;;;;;;8.63;6.07;;;435.60;2355.20;;;;;;5018650;28;20099;-77
2022/09/13 01:57:21;;;;;;;10.65;5.80;;;435.40;2355.20;;;;;;5020018;28;20103;-76
2022/09/13 02:00:11;;;;;;;9.68;5.60;;;435.40;2355.20;;;;;;5020385;28;20076;-76
2022/09/13 02:02:42;;;;;;;12.43;6.13;;;435.20;2355.20;;;;;;5015363;28;20061;-76
2022/09/13 02:05:22;;;;;;;13.60;5.93;;;435.30;2355.20;;;;;;5020467;28;20029;-75
2022/09/13 02:08:01;;;;;;;10.57;5.88;;;435.20;2355.20;;;;;;5020076;28;20186;-75
2022/09/13 02:10:38;;;;;;;6.97;5.57;;;410.50;2355.20;;;;;;5017794;28;20037;-75
2022/09/13 02:13:09;;;;;;;8.40;5.80;;;410.50;2355.20;;;;;;5019414;28;20104;-76
2022/09/13 02:15:47;;;;;;;8.80;6.00;;;410.50;2355.20;;;;;;5045907;28;20034;-76
2022/09/13 02:18:25;;;;;;;8.88;5.75;;;410.50;2355.20;;;;;;5070822;28;20052;-75
2022/09/13 02:20:53;;;;;;;9.88;5.75;;;410.40;2355.20;;;;;;5071402;28;20021;-76
2022/09/13 02:23:25;;;;;;;14.85;6.05;;;410.30;2355.20;;;;;;5068675;28;20107;-75
2022/09/13 02:25:54;;;;;;;9.57;6.88;;;410.30;2355.20;;;;;;5071351;28;20048;-76
2022/09/13 02:28:27;;;;;;;11.55;5.65;;;410.30;2355.20;;;;;;5072534;28;20029;-76
2022/09/13 02:30:56;;;;;;;8.50;6.38;;;410.30;2355.20;;;;;;5076952;28;20020;-75
2022/09/13 02:33:32;;;;;;;9.85;6.93;;;410.20;2355.20;;;;;;5075185;28;20028;-76
2022/09/13 02:36:06;;;;;;;11.05;6.75;;;410.20;2355.20;;;;;;5095269;28;20389;-75
2022/09/13 02:38:44;;;;;;;8.88;6.18;;;410.20;2355.20;;;;;;5095214;28;20040;-75
2022/09/13 02:41:16;;;;;;;10.65;6.90;;;410.20;2355.20;;;;;;5077644;28;20024;-76
2022/09/13 02:43:50;;;;;;;12.40;6.75;;;410.20;2355.20;;;;;;5092662;28;20075;-76
2022/09/13 02:46:44;;;;;;;10.13;6.38;;;410.20;2355.20;;;;;;5073650;28;20024;-75
2022/09/13 02:49:32;;;;;;;9.98;6.90;;;410.20;2355.20;;;;;;5069943;28;20031;-75
2022/09/13 02:52:33;;;;;;;9.32;6.40;;;410.20;2355.20;;;;;;5073414;28;20492;-75
2022/09/13 02:55:15;;;;;;;8.30;6.28;;;410.20;2355.20;;;;;;5064609;28;20082;-76
2022/09/13 02:57:57;;;;;;;9.25;6.50;;;410.30;2355.20;;;;;;5071139;28;20028;-75
2022/09/13 03:00:23;;;;;;;11.00;7.22;;;410.30;2355.20;;;;;;5071697;28;20012;-76
2022/09/13 03:02:50;;;;;;;9.80;6.50;;;410.30;2355.20;;;;;;5069520;28;20031;-75
2022/09/13 03:05:16;;;;;;;11.27;6.57;;;410.30;2355.20;;;;;;5076468;28;20008;-75
2022/09/13 03:07:42;;;;;;;10.10;5.95;;;410.30;2355.20;;;;;;5076265;28;20512;-75
2022/09/13 03:10:13;;;;;;;11.32;6.05;;;410.30;2355.20;;;;;;5079604;28;20032;-75
2022/09/13 03:13:15;;;;;;;9.88;7.10;;;410.30;2355.20;;;;;;5077093;28;20044;-75
2022/09/13 03:15:59;;;;;;;11.55;6.57;;;410.30;2355.20;;;;;;5074360;28;20095;-75
2022/09/13 03:18:59;;;;;;;9.77;7.05;;;410.20;2355.20;;;;;;5080003;28;20132;-75
2022/09/13 03:21:42;;;;;;;7.82;6.13;;;410.30;2355.20;;;;;;5073263;28;20016;-76
2022/09/13 03:24:49;;;;;;;9.30;7.20;;;410.30;2355.20;;;;;;5072784;28;20501;-76
2022/09/13 03:27:41;;;;;;;13.10;7.00;;;410.30;2355.20;;;;;;5006569;28;20057;-76
2022/09/13 03:30:11;;;;;;;13.68;7.35;;;410.20;2355.20;;;;;;5020236;28;20033;-75
2022/09/13 03:32:37;;;;;;;8.93;6.45;;;410.30;2355.20;;;;;;5020681;28;20080;-76
2022/09/13 03:35:31;;;;;;;10.30;6.45;;;410.20;2355.20;;;;;;5021552;28;20045;-75
2022/09/13 03:38:00;;;;;;;9.68;6.63;;;410.20;2355.20;;;;;;5022813;28;20046;-76
2022/09/13 03:40:29;;;;;;;11.40;7.13;;;410.00;2355.20;;;;;;5020233;28;20034;-75
2022/09/13 03:43:00;;;;;;;11.13;6.50;;;410.00;2355.20;;;;;;5022828;28;20022;-75
2022/09/13 03:45:31;;;;;;;9.98;6.70;;;410.00;2355.20;;;;;;5020998;28;20052;-75
2022/09/13 03:47:57;;;;;;;9.13;6.28;;;410.00;2355.20;;;;;;5020997;28;20029;-76
2022/09/13 03:50:25;;;;;;;8.50;6.30;;;409.90;2355.20;;;;;;5020095;28;20484;-76
2022/09/13 03:52:58;;;;;;;11.90;6.55;;;409.90;2355.20;;;;;;5023045;28;20029;-75
2022/09/13 03:55:24;;;;;;;9.80;6.22;;;409.70;2355.20;;;;;;5020248;28;20064;-75
2022/09/13 03:57:50;;;;;;;11.02;6.28;;;384.90;2329.60;;;;;;5021506;28;20034;-75
2022/09/13 04:00:17;;;;;;;10.13;5.88;;;384.70;2329.60;;;;;;5020901;28;20029;-75
2022/09/13 04:02:43;;;;;;;9.40;6.45;;;;;;;;;;5022331;28;20041;-75
2022/09/13 04:05:09;;;;;;;14.23;6.97;;;;;;;;;;5057121;28;20032;-76
2022/09/13 04:07:35;;;;;;;12.27;7.22;;;;;;;;;;5076212;28;20433;-75
2022/09/13 04:10:01;;;;;;;8.88;6.47;;;;;;;;;;5081789;28;20013;-75
2022/09/13 04:12:29;;;;;;;11.68;7.45;;;;;;;;;;5073239;28;20028;-75
2022/09/13 04:14:55;;;;;;;19.05;7.20;;;384.70;2329.60;;;;;;5078712;28;20069;-77
2022/09/13 04:17:21;;;;;;;12.00;7.88;;;384.40;2329.60;;;;;;5076178;28;20463;-76
2022/09/13 04:19:48;;;;;;;10.65;7.32;;;384.40;2329.60;;;;;;5085447;28;20044;-75
2022/09/13 04:22:14;;;;;;;15.88;6.55;;;384.30;2329.60;;;;;;5073393;28;20027;-76
2022/09/13 04:24:42;;;;;;;10.95;6.90;;;384.40;2329.60;;;;;;5076274;28;20025;-75
2022/09/13 04:27:07;;;;;;;10.18;6.85;;;384.40;2329.60;;;;;;5089233;28;20097;-75
2022/09/13 04:29:33;;;;;;;9.07;6.60;;;384.20;2329.60;;;;;;5083103;28;20462;-76
2022/09/13 04:31:59;;;;;;;9.68;7.10;;;384.30;2329.60;;;;;;5093884;28;20021;-74
2022/09/13 04:34:25;;;;;;;11.70;6.60;;;384.60;2329.60;;;;;;5093784;28;20410;-76
2022/09/13 04:36:52;;;;;;;10.55;6.68;;;384.30;2329.60;;;;;;5094116;28;20107;-75
2022/09/13 04:39:19;;;;;;;10.02;6.93;;;384.30;2329.60;;;;;;5093473;28;20039;-76
2022/09/13 04:41:47;;;;;;;17.88;7.65;;;384.40;2329.60;;;;;;5091985;28;20032;-75
2022/09/13 04:44:14;;;;;;;14.23;7.70;;;384.20;2329.60;;;;;;5089581;28;20059;-76
2022/09/13 04:46:40;;;;;;;10.98;7.70;;;384.20;2329.60;;;;;;5083601;28;20094;-75
2022/09/13 04:49:06;;;;;;;11.25;7.60;;;384.20;2329.60;;;;;;5092177;28;20032;-75
2022/09/13 04:51:32;;;;;;;11.43;6.90;;;384.20;2329.60;;;;;;5084923;28;20032;-75
2022/09/13 04:53:59;;;;;;;9.05;6.85;;;384.30;2329.60;;;;;;5086391;28;20031;-71
2022/09/13 04:56:26;;;;;;;15.32;8.07;;;384.30;2329.60;;;;;;5093535;28;20373;-78
2022/09/13 04:58:54;;;;;;;8.88;7.38;;;384.30;2329.60;;;;;;5093362;28;20036;-76
2022/09/13 05:01:21;;;;;;;10.60;7.30;;;384.40;2329.60;;;;;;5091683;28;20084;-73
2022/09/13 05:03:47;;;;;;;12.02;7.85;;;384.40;2329.60;;;;;;5093057;28;20047;-76
2022/09/13 05:06:18;;;;;;;10.40;7.32;;;384.50;2329.60;;;;;;5093127;28;20013;-75
2022/09/13 05:08:49;;;;;;;9.77;7.65;;;384.60;2329.60;;;;;;5093077;28;20046;-75
2022/09/13 05:11:14;;;;;;;13.52;7.57;;;384.60;2329.60;;;;;;5093061;28;20024;-75
2022/09/13 05:13:40;;;;;;;11.85;6.85;;;384.70;2329.60;;;;;;5092965;28;20030;-75
2022/09/13 05:16:07;;;;;;;14.63;7.68;;;384.90;2329.60;;;;;;5092827;28;20024;-76
2022/09/13 05:18:35;;;;;;;13.85;7.85;;;384.70;2329.60;;;;;;5092512;28;20055;-76
2022/09/13 05:21:03;;;;;;;11.90;6.68;;;384.80;2329.60;;;;;;5091808;28;20394;-77
2022/09/13 05:23:30;;;;;;;10.50;7.05;;;384.90;2329.60;;;;;;5091788;28;20028;-76
2022/09/13 05:25:58;;;;;;;12.48;7.38;;;409.60;2355.20;;;;;;5091746;28;20030;-76
2022/09/13 05:28:26;;;;;;;12.30;7.40;;;409.60;2355.20;;;;;;5077546;28;20016;-76
2022/09/13 05:30:59;;;;;;;12.82;7.07;;;409.60;2355.20;;;;;;5090786;28;20429;-76
2022/09/13 05:33:26;;;;;;;12.40;7.68;;;409.70;2355.20;;;;;;5091534;28;20016;-76
2022/09/13 05:35:52;;;;;;;9.85;6.72;;;409.70;2355.20;;;;;;5092614;28;20024;-76
2022/09/13 05:38:18;;;;;;;12.80;7.65;;;409.70;2355.20;;;;;;5090936;28;20096;-77
2022/09/13 05:40:44;;;;;;;10.98;7.28;;;409.70;2355.20;;;;;;5079121;28;20023;-76
2022/09/13 05:43:10;;;;;;;11.40;6.85;;;409.70;2355.20;;;;;;5092697;28;20495;-76
2022/09/13 05:45:35;;;;;;;10.25;7.35;;;409.80;2355.20;;;;;;5085091;28;20108;-76
2022/09/13 05:48:01;;;;;;;10.32;7.10;;;409.80;2355.20;;;;;;5082728;28;20036;-78
2022/09/13 05:50:27;;;;;;;11.00;7.57;;;409.70;2355.20;;;;;;5092712;28;20587;-77
2022/09/13 05:52:54;;;;;;;14.15;7.15;;;409.70;2355.20;;;;;;5091107;28;20650;-76
2022/09/13 05:55:20;;;;;;;15.48;7.40;;;409.90;2355.20;;;;;;5092550;28;20023;-78
2022/09/13 05:57:47;;;;;;;9.45;6.32;;;410.00;2355.20;;;;;;5090860;28;20105;-76
2022/09/13 06:00:13;;;;;;;11.70;6.88;;;410.00;2355.20;;;;;;5092232;28;20028;-76
2022/09/13 06:02:40;;;;;;;13.48;7.13;;;409.90;2355.20;;;;;;5084437;28;20547;-77
2022/09/13 06:05:09;;;;;;;9.95;6.65;;;410.10;2355.20;;;;;;5084775;28;20024;-75
2022/09/13 06:07:38;;;;;;;15.77;7.32;;;410.20;2355.20;;;;;;5092381;28;20031;-76
2022/09/13 06:10:04;;;;;;;9.35;6.95;;;410.20;2355.20;;;;;;5090607;28;20081;-76
2022/09/13 06:12:29;;;;;;;13.82;6.93;;;410.20;2355.20;;;;;;5090861;28;20377;-76
2022/09/13 06:14:55;;;;;;;10.32;6.63;;;410.30;2355.20;;;;;;5090650;28;20022;-76
2022/09/13 06:17:21;;;;;;;9.05;6.95;;;410.30;2355.20;;;;;;5090004;28;20122;-77
2022/09/13 06:19:46;;;;;;;11.07;7.20;;;410.30;2355.20;;;;;;5089096;28;20020;-76
2022/09/13 06:22:12;;;;;;;10.32;6.47;;;410.50;2355.20;;;;;;5090779;28;20108;-76
2022/09/13 06:24:38;;;;;;;9.82;6.90;;;410.50;2355.20;;;;;;5091733;28;20493;-77
2022/09/13 06:27:04;;;;;;;10.65;7.32;;;435.20;2355.20;;;;;;5092112;28;20020;-76
2022/09/13 06:29:30;;;;;;;9.27;6.78;;;435.30;2355.20;;;;;;5091776;28;20371;-76
2022/09/13 06:31:57;;;;;;;10.18;6.32;;;435.30;2355.20;;;;;;5091717;28;20028;-76
2022/09/13 06:34:22;;;;;;;10.35;7.10;;;435.50;2355.20;;;;;;5090643;28;20135;-77
2022/09/13 06:36:48;;;;;;;10.02;6.72;;;435.60;2355.20;;;;;;5074136;28;20513;-76
2022/09/13 06:39:14;;;;;;;10.32;6.90;;;435.70;2355.20;;;;;;5080077;28;20524;-76
2022/09/13 06:41:40;;;;;;;12.07;6.72;;;435.80;2355.20;;;;;;5091582;28;20020;-77
2022/09/13 06:44:06;;;;;;;17.80;7.05;;;435.80;2355.20;;;;;;5094182;28;20103;-73
2022/09/13 06:46:34;;;;;;;10.15;6.95;;;435.90;2355.20;;;;;;5095678;28;20032;-78
2022/09/13 06:49:04;;;;;;;8.18;6.47;;;436.00;2355.20;;;;;;5096250;28;20020;-79
2022/09/13 06:51:32;;;;;;;10.25;6.03;;;436.10;2355.20;;;;;;5094901;28;20138;-81
2022/09/13 06:53:58;;;;;;;11.77;6.40;;;460.80;2380.80;;;;;;5096248;28;20020;-78
2022/09/13 06:56:33;;;;;;;8.25;6.05;;;460.80;2380.80;;;;;;5094254;28;20122;-79
2022/09/13 06:59:03;;;;;;;11.10;6.93;;;461.00;2380.80;;;;;;5091496;28;20040;-78
2022/09/13 07:01:30;;;;;;;9.43;6.20;;;461.20;2380.80;;;;;;5085291;28;20016;-79
2022/09/13 07:04:02;;;;;;;8.20;6.20;;;461.30;2380.80;;;;;;5094440;28;20180;-78
2022/09/13 07:06:34;;;;;;;14.02;6.10;;;461.30;2380.80;;;;;;5095938;28;20073;-78
2022/09/13 07:09:01;;;;;;;10.63;6.68;;;461.50;2380.80;;;;;;5094519;28;20078;-79
2022/09/13 07:11:30;;;;;;;9.32;6.18;;;461.60;2380.80;;;;;;5096257;28;20024;-85
2022/09/13 07:13:58;;;;;;;12.63;6.03;;;461.60;2380.80;;;;;;5095285;28;20153;-82
2022/09/13 07:16:28;;;;;;;8.55;6.05;;;461.70;2380.80;;;;;;5094702;28;20031;-82
2022/09/13 07:18:58;;;;;;;6.97;5.32;;;461.70;2380.80;;;;;;5096189;28;20048;-86
2022/09/13 07:21:25;;;;;;;15.10;6.05;;;486.40;2380.80;;;;;;5094437;28;20035;-86
2022/09/13 07:23:52;;;;;;;10.10;4.93;;;486.50;2380.80;;;;;;5095030;28;20028;-81
2022/09/13 07:38:56;;;;;;;9.40;5.88;;;486.40;2380.80;;;;;;5082981;27;20770;-88
2022/09/13 07:41:24;;;;;;;7.65;4.93;;;487.10;2380.80;;;;;;5061604;28;20394;-88
2022/09/13 07:43:50;;;;;;;8.48;5.15;;;487.00;2380.80;;;;;;5069537;28;20071;-84
2022/09/13 07:46:31;;;;;;;8.40;5.32;;;487.00;2380.80;;;;;;5064317;28;20062;-86
2022/09/13 07:48:57;;;;;;;11.15;5.47;;;487.00;2380.80;;;;;;5065151;28;20036;-87
2022/09/13 07:51:26;;;;;;;7.00;5.18;;;487.10;2380.80;;;;;;5069068;28;20031;-86
2022/09/13 07:53:55;;;;;;;8.07;5.57;;;487.10;2380.80;;;;;;5069194;28;20021;-84
2022/09/13 07:56:24;;;;;;;8.00;5.00;;;487.20;2380.80;;;;;;5068429;28;20482;-76
2022/09/13 07:58:51;;;;;;;10.18;5.28;;;487.20;2380.80;;;;;;5069742;28;20021;-82
2022/09/13 08:01:24;;;;;;;6.88;4.75;;;487.30;2380.80;;;;;;5068620;28;20029;-88
2022/09/13 08:03:53;;;;;;;7.85;4.93;;;487.30;2380.80;;;;;;5068433;28;20028;-83
2022/09/13 08:06:19;;;;;;;12.23;4.72;;;512.00;2380.80;;;;;;5068470;28;20086;-80
2022/09/13 08:08:45;;;;;;;7.30;3.92;;;512.10;2380.80;;;;;;5069208;28;20043;-85
2022/09/13 08:11:33;;;;;;;5.18;3.80;;;512.10;2380.80;;;;;;5069519;28;20405;-86
2022/09/13 08:14:00;;;;;;;11.48;3.92;;;512.00;2380.80;;;;;;5068527;28;20032;-87
2022/09/13 08:16:28;;;;;;;7.55;4.25;;;512.00;2380.80;;;;;;5068381;28;20107;-88
2022/09/13 08:18:56;;;;;;;8.15;4.32;;;512.10;2380.80;;;;;;5068422;28;20021;-86
2022/09/13 08:21:23;;;;;;;10.30;4.97;;;512.10;2380.80;;;;;;5069557;28;20029;-87
2022/09/13 08:23:49;;;;;;;6.47;4.30;;;512.10;2380.80;;;;;;5068279;28;20119;-84
2022/09/13 08:26:16;;;;;;;7.90;4.50;;;512.20;2380.80;;;;;;5067919;28;20028;-83
2022/09/13 08:28:42;;;;;;;8.57;4.95;;;512.30;2380.80;;;;;;5079140;28;20079;-88
2022/09/13 08:31:14;;;;;;;6.65;4.10;;;512.40;2380.80;;;;;;5069434;28;20052;-86
2022/09/13 08:33:46;;;;;;;8.45;4.25;;;512.50;2380.80;;;;;;5067481;28;20048;-81
2022/09/13 08:36:11;;;;;;;9.60;4.05;;;512.60;2380.80;;;;;;5067510;28;20100;-80
2022/09/13 08:38:37;;;;;;;8.82;4.03;;;512.70;2380.80;;;;;;5061151;28;20076;-81
2022/09/13 08:41:38;;;;;;;8.68;3.72;;;512.80;2329.60;;;;;;5054471;28;20017;-86
2022/09/13 08:44:25;;;;;;;7.30;3.88;;;512.90;2355.20;;;;;;5054637;28;20036;-88
2022/09/13 08:46:56;;;;;;;12.10;4.97;;;512.90;2304.00;;;;;;5051036;28;20029;-83
2022/09/13 08:49:25;;;;;;;13.32;4.53;;;537.60;2329.60;;;;;;5049346;28;20044;-82
2022/09/13 08:51:54;;;;;;;5.25;3.67;;;537.70;2278.40;;;;;;5054604;28;20048;-82
2022/09/13 08:54:21;;;;;;;9.00;4.18;;;537.80;2227.20;;;;;;5055408;28;20497;-82
2022/09/13 08:56:55;;;;;;;8.02;3.00;;;537.90;2227.20;;;;;;5054259;28;20108;-83
2022/09/13 08:59:39;;;;;;;3.53;2.50;;;538.00;2124.80;;;;;;5054184;28;20028;-85
2022/09/13 09:02:31;;;;;;;5.85;3.03;;;538.10;2099.20;;;;;;5043443;28;20086;-83
2022/09/13 09:05:13;;;;;;;7.82;3.15;;;538.20;2150.40;;;;;;5053842;28;20021;-83
2022/09/13 09:08:01;;;;;;;5.75;3.72;;;538.40;2099.20;;;;;;5055300;28;20044;-84
2022/09/13 09:10:45;;;;;;;8.10;2.95;;;563.20;2099.20;;;;;;5050067;28;20026;-85
2022/09/13 09:24:59;;;;;;;5.40;2.90;;;563.40;1971.20;;;;;;5110939;27;20381;-80
2022/09/13 09:27:26;;;;;;;7.25;2.70;;;589.10;1817.60;;;;;;5108641;28;20515;-79
2022/09/13 09:29:57;;;;;;;7.20;2.33;;;589.10;1740.80;;;;;;5108560;28;20023;-78
2022/09/13 09:32:46;;;;;;;4.78;2.38;;;589.00;1689.60;;;;;;5094818;28;20392;-79
2022/09/13 09:35:22;;;;;;;9.55;3.78;;;589.10;1715.20;;;;;;5108198;28;20039;-79
2022/09/13 09:38:30;;;;;;;3.08;2.00;;;589.10;1715.20;;;;;;5108639;28;20440;-79
2022/09/13 09:40:58;;;;;;;12.57;2.80;;;589.10;1689.60;;;;;;5010562;28;20515;-78
2022/09/13 09:43:57;;;;;;;9.52;2.63;;;589.30;1664.00;;;;;;5026938;28;20026;-79
2022/09/13 09:46:27;;;;;;;4.35;1.92;;;589.30;1664.00;;;;;;5023717;28;20042;-78
2022/09/13 09:50:07;;;;;;;8.48;2.40;;;589.20;1638.40;;;;;;5010175;28;20513;-79
2022/09/13 09:51:50;;;;;;;;;;;589.30;1638.40;;;;;;5027170;28;20040;-78
2022/09/13 09:54:17;;;;;;;3.78;1.88;;;589.60;1561.60;;;;;;5010022;28;19972;-79
2022/09/13 09:56:53;;;;;;;3.65;2.03;;;614.40;1536.00;;;;;;5026404;28;20041;-78
2022/09/13 09:59:28;;;;;;;5.82;2.28;;;614.50;1510.40;;;;;;5026652;28;20473;-78
2022/09/13 10:01:56;;;;;;;7.30;2.25;;;614.70;1536.00;;;;;;5010004;28;20034;-78
2022/09/13 10:04:26;;;;;;;4.45;2.30;;;614.90;1510.40;;;;;;5010069;28;20041;-79
2022/09/13 10:07:25;;;;;;;2.97;1.88;;;614.90;1459.20;;;;;;5026217;28;20061;-78
2022/09/13 10:10:02;;;;;;;6.15;2.97;;;615.10;1433.60;;;;;;5021272;28;20029;-79
2022/09/13 10:12:32;;;;;;;7.13;2.33;;;615.20;1433.60;;;;;;5009780;28;20030;-78
2022/09/13 10:15:12;;;;;;;4.22;2.17;;;615.30;1459.20;;;;;;5026739;28;20518;-78
2022/09/13 10:17:38;;;;;;;3.97;2.10;;;640.10;1408.00;;;;;;5041469;28;20037;-79
2022/09/13 10:20:13;;;;;;;6.35;2.33;;;640.00;1331.20;;;;;;5074295;28;20425;-78
2022/09/13 10:22:39;;;;;;;3.90;1.90;;;640.20;1331.20;;;;;;5101520;27;20035;-78
2022/09/13 10:25:24;;;;;;;3.55;1.98;;;640.20;1305.60;;;;;;5093624;28;20078;-78
2022/09/13 10:27:57;;;;;;;7.95;1.88;;;640.20;1305.60;;;;;;5087027;28;20384;-78
2022/09/13 10:30:41;;;;;;;3.75;2.03;;;640.30;1305.60;;;;;;5093453;28;20043;-78
2022/09/13 10:33:34;;;;;;;3.47;1.77;;;640.20;1331.20;;;;;;5080523;28;20040;-78
2022/09/13 10:36:11;;;;;;;10.38;2.20;;;640.40;1305.60;;;;;;5083500;28;20021;-78
2022/09/13 10:38:46;;;;;;;2.72;2.15;;;640.70;1280.00;;;;;;5091247;28;20164;-78
2022/09/13 10:41:22;;;;;;;2.58;1.67;;;665.70;1254.40;;;;;;5092838;28;20032;-78
2022/09/13 10:43:55;;;;;;;3.53;1.80;;;640.90;1280.00;;;;;;5094896;28;20099;-78
2022/09/13 10:46:22;;;;;;;3.80;1.75;;;665.70;1254.40;;;;;;5093662;28;20110;-78
2022/09/13 10:48:54;;;;;;;2.95;1.73;;;640.90;1254.40;;;;;;5076120;28;20128;-77
2022/09/13 10:51:28;;;;;;;2.72;1.60;;;665.60;1254.40;;;;;;5076504;28;20077;-78
2022/09/13 10:54:23;;;;;;;3.75;1.77;;;666.00;1254.40;;;;;;5075032;28;20040;-76
2022/09/13 10:56:50;;;;;;;3.17;1.85;;;666.20;1228.80;;;;;;5075624;28;20041;-78
2022/09/13 10:59:23;;;;;;;5.05;1.92;;;666.00;1254.40;;;;;;5079573;28;20019;-82
2022/09/13 11:02:04;;;;;;;2.83;1.60;;;665.60;1280.00;;;;;;5084315;28;20060;-79
2022/09/13 11:05:05;;;;;;;7.25;1.92;;;665.60;1254.40;;;;;;5076948;28;20035;-79
2022/09/13 11:07:42;;;;;;;5.40;2.05;;;665.60;1228.80;;;;;;5093430;28;20358;-79
2022/09/13 11:10:08;;;;;;;2.75;1.50;;;665.70;1254.40;;;;;;5093287;28;20089;-79
2022/09/13 11:12:58;;;;;;;6.68;1.77;;;640.90;1203.20;;;;;;5094303;28;20387;-81
2022/09/13 11:16:05;;;;;;;5.50;1.50;;;665.70;1228.80;;;;;;5093255;28;20035;-79
2022/09/13 11:18:48;;;;;;;6.28;2.15;;;666.20;1254.40;;;;;;5089752;28;21790;-78
2022/09/13 11:21:40;;;;;;;4.03;1.40;;;691.30;1177.60;;;;;;5085819;28;20055;-78
2022/09/13 11:24:28;;;;;;;3.30;1.80;;;691.40;1203.20;;;;;;5093463;28;20044;-79
2022/09/13 11:27:08;;;;;;;2.60;1.50;;;691.90;1152.00;;;;;;5092519;28;20016;-78
2022/09/13 11:29:59;;;;;;;4.40;1.50;;;692.10;1126.40;;;;;;5088357;28;20495;-78
2022/09/13 11:32:48;;;;;;;2.80;1.63;;;716.90;1126.40;;;;;;5100487;28;20496;-76
2022/09/13 11:35:45;;;;;;;3.35;1.58;;;716.80;1126.40;;;;;;5014164;28;20041;-77
2022/09/13 11:38:30;;;;;;;3.05;1.67;;;691.50;1126.40;;;;;;5031873;28;20053;-78
2022/09/13 11:41:27;;;;;;;6.72;2.33;;;691.40;1152.00;;;;;;5036427;28;20116;-80
2022/09/13 11:44:23;;;;;;;3.47;1.80;;;691.70;1100.80;;;;;;5021247;28;20021;-80
2022/09/13 11:47:10;;;;;;;2.45;1.60;;;691.90;1075.20;;;;;;5041183;28;20099;-81
2022/09/13 11:50:01;;;;;;;2.50;1.90;;;691.80;1100.80;;;;;;5026166;28;20518;-87
2022/09/13 11:52:32;;;;;;;2.17;1.60;;;692.10;1100.80;;;;;;5017995;28;20041;-81
2022/09/13 11:55:15;;;;;;;2.80;1.58;;;692.00;1049.60;;;;;;5055191;28;20033;-80
2022/09/13 11:57:48;;;;;;;2.97;1.63;;;692.00;1049.60;;;;;;5050263;28;20499;-80
2022/09/13 12:00:20;;;;;;;7.00;1.70;;;716.80;1100.80;;;;;;5020740;28;20041;-83
2022/09/13 12:03:04;;;;;;;4.63;1.80;;;716.80;1126.40;;;;;;5023170;28;20095;-84
2022/09/13 12:05:38;;;;;;;2.88;1.60;;;716.90;1100.80;;;;;;5035468;28;20035;-83
2022/09/13 12:08:19;;;;;;;2.38;1.60;;;716.80;1100.80;;;;;;5015678;28;20022;-84
2022/09/13 12:10:51;;;;;;;3.67;1.40;;;717.10;1100.80;;;;;;5032282;28;20021;-87
2022/09/13 12:13:51;;;;;;;3.75;1.45;;;717.10;1100.80;;;;;;5078990;28;20036;-86
2022/09/13 12:16:25;;;;;;;5.63;1.70;;;717.20;1100.80;;;;;;5092869;28;20020;-86
2022/09/13 12:18:55;;;;;;;1.77;1.40;;;717.20;1075.20;;;;;;5092902;28;20032;-88
2022/09/13 12:21:36;;;;;;;3.25;1.95;;;692.00;1075.20;;;;;;5092946;28;20477;-85
2022/09/13 12:24:05;;;;;;;3.00;1.70;;;691.40;1075.20;;;;;;5093352;28;20051;-85
2022/09/13 12:26:45;;;;;;;7.68;2.08;;;691.20;1100.80;;;;;;5081800;28;20024;-88
2022/09/13 12:29:18;;;;;;;4.95;2.78;;;666.50;1100.80;;;;;;5083442;28;20492;-85
2022/09/13 12:31:44;;;;;;;2.92;1.70;;;666.50;1100.80;;;;;;5084282;28;20054;-87
2022/09/13 12:34:27;;;;;;;3.75;1.73;;;691.40;1100.80;;;;;;5077302;28;20064;-84
2022/09/13 12:37:07;;;;;;;2.42;1.67;;;691.50;1126.40;;;;;;5093771;28;20107;-87
2022/09/13 12:39:33;;;;;;;4.43;1.70;;;691.70;1126.40;;;;;;5067449;28;20503;-79
2022/09/13 12:41:59;;;;;;;7.63;1.80;;;691.90;1152.00;;;;;;5074292;28;20107;-85
2022/09/13 12:44:49;;;;;;;3.92;1.75;;;716.80;1126.40;;;;;;5074743;28;20393;-86
2022/09/13 12:47:38;;;;;;;2.58;1.48;;;717.00;1100.80;;;;;;5062975;28;20043;-85
2022/09/13 12:50:39;;;;;;;3.63;1.58;;;716.90;1152.00;;;;;;5066896;28;20029;-85
2022/09/13 12:53:30;;;;;;;2.08;1.48;;;717.10;1100.80;;;;;;5020785;28;20053;-86
2022/09/13 12:56:04;;;;;;;3.13;1.83;;;716.80;1126.40;;;;;;5013712;28;20025;-85
2022/09/13 12:58:59;;;;;;;3.45;1.58;;;692.00;1100.80;;;;;;5025151;28;20034;-86
2022/09/13 13:01:29;;;;;;;8.05;1.83;;;716.80;1152.00;;;;;;4994660;28;20117;-85
2022/09/13 13:04:00;;;;;;;3.13;1.90;;;716.80;1126.40;;;;;;5027485;28;20030;-82
2022/09/13 13:06:40;;;;;;;2.28;1.77;;;716.80;1100.80;;;;;;5021400;28;20104;-85
2022/09/13 13:09:41;;;;;;;5.22;1.90;;;716.80;1075.20;;;;;;5018734;28;20021;-85
2022/09/13 13:12:30;;;;;;;4.28;2.65;;;691.90;1075.20;;;;;;5003586;28;20116;-86
2022/09/13 13:14:57;;;;;;;5.30;1.88;;;691.90;1075.20;;;;;;5013604;28;20108;-80